Time;durP1;ratioP1;P1;durP2;ratioP2;P2;SDS_P1;SDS_P2;PMS_P1;PMS_P2;Temp;Humidity;BMP_temperature;BMP_pressure;BME280_temperature;BME280_humidity;BME280_pressure;Samples;Min_cycle;Max_cycle;Signal;HPM_P1;HPM_P2
2021/11/06 00:01:21;;;;;;;7.40;1.67;;;7.40;46.80;;;;;;4809265;28;20192;-78
2021/11/06 00:03:44;;;;;;;10.07;2.10;;;;;;;;;;4826578;28;20195;-78
2021/11/06 00:06:06;;;;;;;5.37;1.20;;;;;;;;;;4827954;28;20254;-77
2021/11/06 00:08:29;;;;;;;6.83;1.53;;;;;;;;;;4838367;28;20186;-78
2021/11/06 00:10:53;;;;;;;7.23;1.53;;;6.90;46.60;;;;;;4788888;28;20223;-78
2021/11/06 00:13:17;;;;;;;7.93;1.70;;;6.60;46.40;;;;;;4838392;28;20600;-77
2021/11/06 00:15:40;;;;;;;9.70;2.07;;;;;;;;;;4838503;28;20240;-79
2021/11/06 00:18:03;;;;;;;4.60;1.10;;;;;;;;;;4821016;28;20242;-77
2021/11/06 00:20:26;;;;;;;5.83;1.40;;;;;;;;;;4837053;28;20261;-78
2021/11/06 00:22:48;;;;;;;4.10;1.10;;;6.50;46.80;;;;;;4838804;28;20191;-78
2021/11/06 00:25:12;;;;;;;6.87;1.50;;;6.60;46.90;;;;;;4836601;28;20754;-78
2021/11/06 00:27:37;;;;;;;8.93;1.90;;;7.10;46.60;;;;;;4829651;28;20202;-77
2021/11/06 00:30:00;;;;;;;4.73;1.13;;;;;;;;;;4836880;28;20245;-78
2021/11/06 00:32:23;;;;;;;6.53;1.47;;;6.60;46.50;;;;;;4829787;28;20200;-77
2021/11/06 00:34:46;;;;;;;4.37;1.00;;;;;;;;;;4830176;28;20198;-78
2021/11/06 00:37:09;;;;;;;7.37;1.57;;;;;;;;;;4827859;28;20206;-78
2021/11/06 00:39:31;;;;;;;9.03;1.83;;;6.20;47.10;;;;;;4827087;28;20564;-77
2021/11/06 00:41:54;;;;;;;4.20;0.93;;;6.50;46.50;;;;;;4826658;28;20191;-78
2021/11/06 00:44:18;;;;;;;6.67;1.43;;;6.30;46.50;;;;;;4828487;28;20223;-78
2021/11/06 00:46:40;;;;;;;11.63;2.27;;;6.70;46.60;;;;;;4829441;28;20248;-79
2021/11/06 00:49:03;;;;;;;4.50;1.00;;;6.60;47.60;;;;;;4829547;28;20206;-77
2021/11/06 00:51:26;;;;;;;5.00;1.17;;;6.60;47.60;;;;;;4828271;28;20268;-78
2021/11/06 00:53:49;;;;;;;4.67;1.03;;;;;;;;;;4826435;28;20709;-78
2021/11/06 00:56:11;;;;;;;4.40;1.07;;;6.60;47.10;;;;;;4826868;28;20235;-78
2021/11/06 00:58:34;;;;;;;10.00;1.97;;;6.60;46.60;;;;;;4829288;28;20194;-78
2021/11/06 01:00:58;;;;;;;7.77;1.57;;;6.50;46.60;;;;;;4827292;28;20700;-79
2021/11/06 01:03:20;;;;;;;6.80;1.40;;;6.50;46.50;;;;;;4829060;28;20175;-78
2021/11/06 01:05:44;;;;;;;8.03;1.83;;;;;;;;;;4826522;28;20191;-79
2021/11/06 01:08:07;;;;;;;3.47;0.90;;;;;;;;;;4810785;28;20191;-78
2021/11/06 01:10:29;;;;;;;6.83;1.53;;;6.60;46.50;;;;;;4840830;28;20187;-78
2021/11/06 01:12:52;;;;;;;4.87;1.10;;;6.20;47.30;;;;;;4838522;28;20660;-78
2021/11/06 01:15:16;;;;;;;9.60;1.90;;;6.50;47.40;;;;;;4838002;28;20191;-79
2021/11/06 01:17:40;;;;;;;7.53;1.53;;;6.50;46.50;;;;;;4838299;28;20241;-78
2021/11/06 01:20:05;;;;;;;4.63;1.10;;;6.50;46.90;;;;;;4838418;28;20241;-78
2021/11/06 01:22:28;;;;;;;6.20;1.20;;;;;;;;;;4809655;28;20208;-78
2021/11/06 01:24:50;;;;;;;4.73;1.07;;;6.60;47.20;;;;;;4814892;28;20603;-78
2021/11/06 01:27:13;;;;;;;7.20;1.50;;;6.60;47.30;;;;;;4828929;28;20190;-78
2021/11/06 01:29:36;;;;;;;11.50;2.37;;;6.50;46.50;;;;;;4825607;28;20252;-77
2021/11/06 01:31:58;;;;;;;5.00;1.13;;;6.60;46.90;;;;;;4826089;28;20250;-78
2021/11/06 01:34:22;;;;;;;6.00;1.33;;;6.30;47.40;;;;;;4826681;28;20215;-78
2021/11/06 01:36:45;;;;;;;8.27;1.73;;;6.70;47.00;;;;;;4812019;28;20267;-79
2021/11/06 01:39:08;;;;;;;4.77;1.13;;;;;;;;;;4828051;28;20215;-78
2021/11/06 01:41:30;;;;;;;6.70;1.57;;;6.70;47.20;;;;;;4835464;28;20306;-77
2021/11/06 01:43:54;;;;;;;7.97;1.70;;;6.40;46.50;;;;;;4836339;28;20285;-78
2021/11/06 01:46:17;;;;;;;6.03;1.33;;;6.40;46.90;;;;;;4819061;28;20196;-78
2021/11/06 01:48:40;;;;;;;10.63;2.23;;;6.20;46.40;;;;;;4795781;28;20191;-79
2021/11/06 01:51:05;;;;;;;2.70;0.77;;;6.50;46.50;;;;;;4805889;28;20215;-79
2021/11/06 01:53:28;;;;;;;3.60;0.93;;;6.30;47.40;;;;;;4827725;28;20206;-79
2021/11/06 01:55:54;;;;;;;4.27;1.00;;;6.50;46.50;;;;;;4828457;28;20197;-79
2021/11/06 01:58:19;;;;;;;9.17;2.07;;;6.70;47.20;;;;;;4826692;28;20206;-78
2021/11/06 02:00:42;;;;;;;28.03;5.83;;;6.30;46.50;;;;;;4825022;28;20191;-78
2021/11/06 02:03:04;;;;;;;3.50;0.90;;;7.00;47.30;;;;;;4827035;28;20188;-78
2021/11/06 02:05:27;;;;;;;2.80;0.80;;;;;;;;;;4819154;28;20200;-78
2021/11/06 02:07:52;;;;;;;3.63;0.97;;;6.50;46.50;;;;;;4836029;28;20205;-78
2021/11/06 02:10:15;;;;;;;4.70;1.20;;;6.30;47.40;;;;;;4836002;28;20241;-78
2021/11/06 02:12:38;;;;;;;6.30;1.47;;;6.00;46.40;;;;;;4835361;28;20645;-78
2021/11/06 02:15:01;;;;;;;3.37;0.90;;;;;;;;;;4836131;28;20233;-78
2021/11/06 02:17:24;;;;;;;4.90;1.27;;;6.30;47.10;;;;;;4837271;28;20819;-77
2021/11/06 02:19:46;;;;;;;3.63;0.97;;;6.50;47.00;;;;;;4835897;28;20789;-78
2021/11/06 02:22:11;;;;;;;3.60;0.97;;;6.30;46.80;;;;;;4835878;28;20201;-77
2021/11/06 02:24:33;;;;;;;5.60;1.37;;;5.80;46.70;;;;;;4837160;28;20191;-78
2021/11/06 02:26:56;;;;;;;3.57;1.00;;;5.80;47.20;;;;;;4837204;28;20245;-78
2021/11/06 02:29:19;;;;;;;5.87;1.40;;;5.80;46.30;;;;;;4835747;28;20309;-78
2021/11/06 02:31:42;;;;;;;7.90;1.80;;;6.20;47.30;;;;;;4835547;28;20230;-78
2021/11/06 02:34:04;;;;;;;4.23;1.10;;;6.30;46.40;;;;;;4835671;28;20552;-78
2021/11/06 02:36:27;;;;;;;4.93;1.20;;;;;;;;;;4835395;28;20229;-78
2021/11/06 02:38:51;;;;;;;4.33;1.10;;;6.20;46.90;;;;;;4834001;28;20273;-78
2021/11/06 02:41:14;;;;;;;6.63;1.53;;;5.80;47.10;;;;;;4825484;28;20210;-78
2021/11/06 02:43:37;;;;;;;5.83;1.40;;;6.40;46.40;;;;;;4810024;28;20654;-78
2021/11/06 02:45:59;;;;;;;3.97;1.10;;;5.90;47.00;;;;;;4828978;28;20182;-78
2021/11/06 02:48:22;;;;;;;4.97;1.37;;;;;;;;;;4825793;28;20207;-78
2021/11/06 02:50:45;;;;;;;6.33;1.50;;;;;;;;;;4792241;28;20200;-78
2021/11/06 02:53:09;;;;;;;2.57;0.77;;;5.40;46.00;;;;;;4808481;28;20270;-77
2021/11/06 02:55:34;;;;;;;8.17;1.83;;;5.90;46.20;;;;;;4795585;28;20199;-78
2021/11/06 02:57:57;;;;;;;3.83;1.00;;;5.60;46.30;;;;;;4835731;28;20190;-79
2021/11/06 03:00:20;;;;;;;5.97;1.47;;;5.70;46.90;;;;;;4834305;28;20634;-78
2021/11/06 03:02:43;;;;;;;7.10;1.73;;;;;;;;;;4818225;28;20202;-79
2021/11/06 03:05:08;;;;;;;3.60;1.00;;;5.60;46.00;;;;;;4834835;28;20194;-79
2021/11/06 03:07:31;;;;;;;6.70;1.63;;;5.50;45.90;;;;;;4838642;28;20615;-78
2021/11/06 03:09:54;;;;;;;3.80;0.97;;;;;;;;;;4818326;28;20195;-77
2021/11/06 03:12:18;;;;;;;7.20;1.60;;;5.50;46.00;;;;;;4834617;28;20316;-78
2021/11/06 03:14:42;;;;;;;6.93;1.80;;;5.50;45.90;;;;;;4836315;28;20240;-78
2021/11/06 03:17:05;;;;;;;3.23;0.90;;;5.30;46.60;;;;;;4835147;28;20183;-77
2021/11/06 03:19:28;;;;;;;4.07;1.10;;;;;;;;;;4836065;28;20194;-78
2021/11/06 03:21:50;;;;;;;3.67;0.93;;;4.40;45.40;;;;;;4834688;28;20249;-78
2021/11/06 03:24:13;;;;;;;6.83;1.60;;;;;;;;;;4834446;28;20244;-78
2021/11/06 03:26:36;;;;;;;7.43;1.70;;;5.00;45.40;;;;;;4818496;28;20191;-78
2021/11/06 03:29:00;;;;;;;3.93;1.00;;;5.20;45.40;;;;;;4836468;28;20222;-78
2021/11/06 03:31:22;;;;;;;7.07;1.77;;;5.20;45.60;;;;;;4835878;28;20183;-78
2021/11/06 03:33:45;;;;;;;8.27;1.97;;;4.80;46.10;;;;;;4834651;28;20195;-78
2021/11/06 03:36:08;;;;;;;4.40;1.20;;;;;;;;;;4835080;28;20715;-77
2021/11/06 03:38:31;;;;;;;8.63;1.97;;;;;;;;;;4834276;28;20249;-78
2021/11/06 03:40:54;;;;;;;3.50;1.03;;;4.60;45.90;;;;;;4818471;28;20238;-77
2021/11/06 03:43:17;;;;;;;8.57;1.97;;;4.70;45.00;;;;;;4837844;28;20241;-78
2021/11/06 03:45:41;;;;;;;6.73;1.63;;;4.50;45.70;;;;;;4809407;28;20203;-78
2021/11/06 03:48:04;;;;;;;3.83;1.03;;;4.50;45.70;;;;;;4810412;28;20677;-78
2021/11/06 03:50:27;;;;;;;4.67;1.20;;;;;;;;;;4825761;28;20237;-77
2021/11/06 03:52:50;;;;;;;3.40;0.90;;;3.30;45.10;;;;;;4827472;28;20218;-78
2021/11/06 03:55:14;;;;;;;5.87;1.40;;;;;;;;;;4827505;28;20241;-78
2021/11/06 03:57:37;;;;;;;7.17;1.80;;;4.00;45.20;;;;;;4831316;28;20652;-79
2021/11/06 03:59:59;;;;;;;3.07;0.90;;;4.80;44.60;;;;;;4830328;28;20225;-78
2021/11/06 04:02:23;;;;;;;6.47;1.57;;;4.60;45.40;;;;;;4809638;28;20191;-78
2021/11/06 04:04:46;;;;;;;3.47;1.00;;;4.60;45.20;;;;;;4826893;28;20227;-78
2021/11/06 04:07:09;;;;;;;2.47;0.80;;;;;;;;;;4827247;28;20200;-78
2021/11/06 04:09:31;;;;;;;8.73;2.03;;;4.60;44.90;;;;;;4829471;28;20736;-78
2021/11/06 04:11:54;;;;;;;3.43;1.00;;;4.50;44.50;;;;;;4829759;28;20273;-78
2021/11/06 04:14:36;;;;;;;6.33;1.53;;;;;;;;;;4832006;28;20285;-78
2021/11/06 04:17:19;;;;;;;6.83;1.63;;;;;;;;;;4839055;28;20174;-78
2021/11/06 04:20:05;;;;;;;2.57;0.70;;;5.30;45.10;;;;;;4824647;28;20609;-78
2021/11/06 04:22:50;;;;;;;2.90;0.90;;;;;;;;;;4833738;28;20187;-77
2021/11/06 04:25:33;;;;;;;5.80;1.47;;;5.20;45.00;;;;;;4831421;28;20186;-79
2021/11/06 04:27:55;;;;;;;3.93;1.17;;;5.40;45.20;;;;;;4839153;28;20199;-78
2021/11/06 04:30:18;;;;;;;5.77;1.47;;;5.20;45.50;;;;;;4837161;28;20673;-78
2021/11/06 04:32:41;;;;;;;7.93;2.10;;;5.40;45.20;;;;;;4820445;28;20215;-78
2021/11/06 04:35:05;;;;;;;3.00;0.90;;;5.50;45.30;;;;;;4821320;28;20187;-77
2021/11/06 04:37:28;;;;;;;4.47;1.20;;;5.30;45.90;;;;;;4826625;28;20302;-78
2021/11/06 04:39:50;;;;;;;3.17;0.90;;;5.20;45.90;;;;;;4826458;28;20199;-78
2021/11/06 04:42:13;;;;;;;6.63;1.70;;;5.20;45.30;;;;;;4826693;28;20625;-78
2021/11/06 04:44:36;;;;;;;5.80;1.57;;;5.10;45.30;;;;;;4828941;28;20284;-78
2021/11/06 04:46:58;;;;;;;3.43;1.00;;;5.50;45.50;;;;;;4812459;28;20234;-78
2021/11/06 04:49:21;;;;;;;6.67;1.73;;;;;;;;;;4812306;28;20200;-78
2021/11/06 04:51:46;;;;;;;5.20;1.53;;;5.50;46.50;;;;;;4828856;28;20202;-79
2021/11/06 04:54:10;;;;;;;2.37;0.77;;;5.20;46.40;;;;;;4830275;28;20218;-78
2021/11/06 04:56:32;;;;;;;6.50;1.70;;;6.00;46.10;;;;;;4829656;28;20219;-79
2021/11/06 04:58:55;;;;;;;3.13;0.97;;;;;;;;;;4837293;28;20191;-79
2021/11/06 05:01:18;;;;;;;6.10;1.73;;;5.40;46.60;;;;;;4833535;28;20781;-78
2021/11/06 05:03:41;;;;;;;5.90;1.53;;;5.60;45.80;;;;;;4838160;28;20706;-78
2021/11/06 05:06:04;;;;;;;2.53;0.87;;;5.30;45.70;;;;;;4837146;28;20194;-78
2021/11/06 05:08:28;;;;;;;7.17;1.87;;;5.50;46.30;;;;;;4820474;28;20184;-78
2021/11/06 05:10:51;;;;;;;2.00;0.63;;;5.30;46.50;;;;;;4838314;28;20233;-78
2021/11/06 05:13:14;;;;;;;6.23;1.60;;;;;;;;;;4839134;28;20217;-78
2021/11/06 05:15:37;;;;;;;5.93;1.63;;;;;;;;;;4836763;28;20203;-78
2021/11/06 05:18:00;;;;;;;3.07;1.00;;;5.20;45.70;;;;;;4821286;28;20199;-79
2021/11/06 05:20:22;;;;;;;2.93;0.93;;;5.20;45.60;;;;;;4838606;28;20183;-77
2021/11/06 05:22:45;;;;;;;5.67;1.67;;;5.10;45.90;;;;;;4838179;28;20195;-77
2021/11/06 05:25:10;;;;;;;1.73;0.70;;;5.20;46.50;;;;;;4838076;28;20187;-77
2021/11/06 05:27:33;;;;;;;6.63;1.70;;;5.30;46.60;;;;;;4836369;28;20284;-77
2021/11/06 05:29:56;;;;;;;3.10;1.00;;;5.30;45.70;;;;;;4819998;28;20203;-78
2021/11/06 05:32:19;;;;;;;7.10;1.83;;;;;;;;;;4803744;28;20608;-78
2021/11/06 05:34:42;;;;;;;5.77;1.50;;;5.20;45.70;;;;;;4835864;28;20273;-78
2021/11/06 05:37:05;;;;;;;3.77;1.10;;;5.10;45.70;;;;;;4821372;28;20252;-78
2021/11/06 05:39:28;;;;;;;3.27;1.07;;;;;;;;;;4836113;28;20202;-78
2021/11/06 05:41:52;;;;;;;3.47;1.00;;;5.50;46.60;;;;;;4836163;28;20203;-78
2021/11/06 05:44:14;;;;;;;7.33;1.83;;;5.20;46.50;;;;;;4835694;28;20257;-78
2021/11/06 05:46:37;;;;;;;6.43;1.70;;;;;;;;;;4835594;28;20229;-78
2021/11/06 05:49:00;;;;;;;2.73;0.93;;;;;;;;;;4830660;28;20188;-79
2021/11/06 05:51:23;;;;;;;4.30;1.30;;;5.40;46.30;;;;;;4827009;28;20198;-79
2021/11/06 05:53:46;;;;;;;7.23;2.00;;;;;;;;;;4818897;28;20661;-78
2021/11/06 05:56:09;;;;;;;2.70;0.90;;;5.70;46.60;;;;;;4834096;28;20199;-78
2021/11/06 05:58:34;;;;;;;6.97;1.87;;;5.30;46.80;;;;;;4835709;28;20863;-78
2021/11/06 06:00:56;;;;;;;5.10;1.47;;;5.30;46.70;;;;;;4814967;28;20191;-78
2021/11/06 06:03:19;;;;;;;4.90;1.40;;;5.30;45.90;;;;;;4815810;28;20615;-77
2021/11/06 06:05:42;;;;;;;6.87;1.93;;;;;;;;;;4832230;28;20206;-78
2021/11/06 06:08:05;;;;;;;5.07;1.50;;;4.80;45.70;;;;;;4833165;28;20198;-77
2021/11/06 06:10:28;;;;;;;4.57;1.33;;;5.30;46.60;;;;;;4833160;28;20207;-77
2021/11/06 06:12:52;;;;;;;5.13;1.40;;;4.90;45.70;;;;;;4833643;28;20182;-78
2021/11/06 06:15:17;;;;;;;5.87;1.60;;;4.90;46.50;;;;;;4814103;28;20678;-78
2021/11/06 06:17:40;;;;;;;7.33;1.90;;;;;;;;;;4815202;28;20188;-78
2021/11/06 06:20:03;;;;;;;3.13;0.97;;;;;;;;;;4834342;28;20203;-78
2021/11/06 06:22:25;;;;;;;3.23;1.00;;;;;;;;;;4785180;28;20655;-78
2021/11/06 06:24:48;;;;;;;4.63;1.30;;;4.70;46.20;;;;;;4831334;28;20191;-77
2021/11/06 06:27:11;;;;;;;4.73;1.37;;;4.80;45.50;;;;;;4831146;28;20245;-78
2021/11/06 06:29:34;;;;;;;9.30;2.33;;;;;;;;;;4831735;28;20220;-77
2021/11/06 06:31:58;;;;;;;5.10;1.37;;;4.60;46.10;;;;;;4833327;28;20325;-78
2021/11/06 06:34:21;;;;;;;5.37;1.47;;;;;;;;;;4799866;28;20231;-78
2021/11/06 06:36:43;;;;;;;7.77;2.07;;;4.40;45.20;;;;;;4815157;28;20191;-78
2021/11/06 06:39:06;;;;;;;6.63;1.77;;;4.80;45.50;;;;;;4830948;28;20199;-77
2021/11/06 06:41:29;;;;;;;2.60;0.83;;;;;;;;;;4832783;28;20190;-78
2021/11/06 06:43:52;;;;;;;6.33;1.70;;;5.30;45.90;;;;;;4832474;28;20688;-78
2021/11/06 06:46:15;;;;;;;5.57;1.50;;;4.80;45.70;;;;;;4831285;28;20249;-79
2021/11/06 06:48:39;;;;;;;7.93;2.10;;;4.80;46.10;;;;;;4831677;28;20647;-77
2021/11/06 06:51:01;;;;;;;2.90;0.90;;;;;;;;;;4835399;28;20190;-78
2021/11/06 06:53:25;;;;;;;3.57;1.10;;;;;;;;;;4819698;28;20310;-78
2021/11/06 06:55:48;;;;;;;2.27;0.77;;;5.20;46.40;;;;;;4830698;28;20253;-77
2021/11/06 06:58:12;;;;;;;2.77;0.87;;;5.30;46.30;;;;;;4818754;28;20530;-78
2021/11/06 07:00:35;;;;;;;37.60;8.80;;;;;;;;;;4809456;28;20203;-78
2021/11/06 07:02:57;;;;;;;3.83;1.17;;;5.30;46.50;;;;;;4825102;28;20241;-77
2021/11/06 07:05:22;;;;;;;2.97;0.87;;;5.40;46.60;;;;;;4837407;28;20191;-77
2021/11/06 07:07:44;;;;;;;6.03;1.67;;;5.50;46.30;;;;;;4834478;28;20187;-77
2021/11/06 07:10:07;;;;;;;2.43;0.73;;;5.60;46.80;;;;;;4835589;28;20206;-77
2021/11/06 07:12:30;;;;;;;6.03;1.63;;;;;;;;;;4830900;28;20649;-77
2021/11/06 07:14:53;;;;;;;3.10;0.90;;;5.90;46.80;;;;;;4830985;28;20286;-78
2021/11/06 07:17:16;;;;;;;4.57;1.20;;;;;;;;;;4835392;28;20992;-77
2021/11/06 07:19:38;;;;;;;10.33;2.50;;;6.40;46.70;;;;;;4834368;28;20261;-75
2021/11/06 07:22:03;;;;;;;5.40;1.33;;;6.60;47.70;;;;;;4836712;28;20597;-78
2021/11/06 07:24:27;;;;;;;3.97;1.10;;;;;;;;;;4837283;28;20190;-78
2021/11/06 07:26:49;;;;;;;2.70;0.87;;;7.50;47.30;;;;;;4838436;28;20190;-75
2021/11/06 07:29:12;;;;;;;3.60;1.00;;;7.60;47.40;;;;;;4839535;28;20429;-78
2021/11/06 07:31:35;;;;;;;6.73;1.73;;;;;;;;;;4839435;28;20190;-75
2021/11/06 07:33:58;;;;;;;3.67;0.93;;;7.30;47.60;;;;;;4823212;28;20238;-78
2021/11/06 07:36:20;;;;;;;2.90;0.80;;;7.80;48.60;;;;;;4843037;28;20318;-76
2021/11/06 07:38:44;;;;;;;4.77;1.40;;;8.20;48.80;;;;;;4822972;28;20199;-78
2021/11/06 07:41:07;;;;;;;2.97;0.90;;;7.90;48.80;;;;;;4839353;28;20309;-78
2021/11/06 07:43:29;;;;;;;4.53;1.17;;;8.50;48.60;;;;;;4840424;28;20213;-78
2021/11/06 07:45:52;;;;;;;3.60;1.00;;;8.40;48.30;;;;;;4840798;28;20245;-77
2021/11/06 07:48:15;;;;;;;5.33;1.37;;;8.70;48.60;;;;;;4838908;28;20202;-76
2021/11/06 07:50:37;;;;;;;9.17;2.10;;;8.70;49.60;;;;;;4837866;28;20179;-76
2021/11/06 07:53:00;;;;;;;3.87;1.10;;;8.60;48.70;;;;;;4836992;28;20179;-77
2021/11/06 07:55:24;;;;;;;5.17;1.40;;;8.30;48.50;;;;;;4837447;28;20227;-78
2021/11/06 07:57:47;;;;;;;3.20;0.90;;;8.60;49.60;;;;;;4838002;28;20575;-78
2021/11/06 08:00:13;;;;;;;2.83;0.90;;;8.40;49.50;;;;;;4837304;28;20234;-77
2021/11/06 08:02:36;;;;;;;7.63;1.80;;;8.30;48.70;;;;;;4833366;28;20241;-78
2021/11/06 08:04:58;;;;;;;3.93;1.10;;;;;;;;;;4839326;28;20558;-78
2021/11/06 08:07:21;;;;;;;4.53;1.20;;;8.50;49.20;;;;;;4839799;28;20178;-79
2021/11/06 08:09:44;;;;;;;7.50;1.90;;;7.90;48.40;;;;;;4820886;28;20203;-79
2021/11/06 08:12:09;;;;;;;4.57;1.30;;;8.50;49.40;;;;;;4822241;28;20191;-78
2021/11/06 08:14:32;;;;;;;5.40;1.27;;;;;;;;;;4838093;28;20261;-77
2021/11/06 08:16:58;;;;;;;4.57;1.20;;;;;;;;;;4839666;28;20241;-78
2021/11/06 08:19:21;;;;;;;6.17;1.47;;;;;;;;;;4837728;28;20203;-77
2021/11/06 08:21:43;;;;;;;7.17;1.77;;;8.20;48.40;;;;;;4837865;28;20754;-76
2021/11/06 08:24:06;;;;;;;4.00;1.10;;;;;;;;;;4837895;28;20580;-79
2021/11/06 08:26:29;;;;;;;3.57;0.97;;;;;;;;;;4821091;28;20203;-78
2021/11/06 08:28:53;;;;;;;5.57;1.30;;;8.40;49.40;;;;;;4821696;28;20203;-75
2021/11/06 08:31:16;;;;;;;5.63;1.53;;;8.20;48.50;;;;;;4838367;28;20191;-78
2021/11/06 08:33:39;;;;;;;7.20;1.77;;;;;;;;;;4820540;28;20226;-77
2021/11/06 08:36:02;;;;;;;4.57;1.30;;;8.40;49.00;;;;;;4820897;28;20219;-76
2021/11/06 08:38:25;;;;;;;5.43;1.30;;;8.20;48.50;;;;;;4838531;28;20711;-78
2021/11/06 08:40:50;;;;;;;2.37;0.70;;;;;;;;;;4834711;28;20196;-77
2021/11/06 08:43:13;;;;;;;5.47;1.37;;;;;;;;;;4837801;28;20211;-77
2021/11/06 08:45:38;;;;;;;8.37;2.00;;;8.80;49.70;;;;;;4804070;28;20215;-78
2021/11/06 08:48:00;;;;;;;4.97;1.23;;;8.80;48.80;;;;;;4837977;28;20198;-79
2021/11/06 08:50:25;;;;;;;4.00;1.10;;;8.90;49.90;;;;;;4823790;28;20188;-76
2021/11/06 08:52:49;;;;;;;3.57;1.03;;;9.00;49.90;;;;;;4819095;28;20211;-75
2021/11/06 08:55:13;;;;;;;3.30;1.00;;;8.90;49.90;;;;;;4827280;28;20218;-79
2021/11/06 08:57:36;;;;;;;8.67;1.93;;;9.40;49.10;;;;;;4836916;28;20202;-78
2021/11/06 09:00:05;;;;;;;4.87;1.20;;;9.00;49.00;;;;;;4837875;28;20203;-77
2021/11/06 09:02:29;;;;;;;4.13;1.00;;;9.40;50.10;;;;;;4834943;28;21037;-78
2021/11/06 09:04:52;;;;;;;4.70;1.07;;;9.40;49.50;;;;;;4821407;28;20282;-78
2021/11/06 09:07:15;;;;;;;8.07;1.63;;;9.60;49.30;;;;;;4820771;28;20787;-79
2021/11/06 09:09:37;;;;;;;11.97;2.13;;;10.20;49.70;;;;;;4837458;28;20237;-78
2021/11/06 09:12:02;;;;;;;8.60;1.57;;;;;;;;;;4832317;28;20260;-79
2021/11/06 09:14:24;;;;;;;6.03;1.17;;;9.90;50.10;;;;;;4840958;28;20210;-78
2021/11/06 09:16:47;;;;;;;4.37;0.90;;;;;;;;;;4839128;28;20297;-76
2021/11/06 09:19:11;;;;;;;5.30;1.03;;;11.30;51.10;;;;;;4836451;28;20207;-76
2021/11/06 09:21:34;;;;;;;8.33;1.40;;;11.50;50.50;;;;;;4829676;28;20191;-77
2021/11/06 09:24:02;;;;;;;10.97;1.83;;;11.60;51.90;;;;;;4820781;28;20223;-78
2021/11/06 09:26:25;;;;;;;9.60;1.57;;;;;;;;;;4836108;28;20244;-78
2021/11/06 09:28:49;;;;;;;5.07;0.90;;;12.60;52.80;;;;;;4838067;28;20194;-77
2021/11/06 09:31:13;;;;;;;8.50;1.40;;;13.50;53.80;;;;;;4836195;28;20684;-79
2021/11/06 09:33:36;;;;;;;15.30;2.37;;;;;;;;;;4836775;28;20669;-80
2021/11/06 09:36:00;;;;;;;6.13;1.03;;;15.90;56.10;;;;;;4836570;28;20502;-79
2021/11/06 09:38:23;;;;;;;9.97;1.63;;;;;;;;;;4818179;28;20187;-78
2021/11/06 09:40:47;;;;;;;13.00;2.03;;;20.80;59.40;;;;;;4820410;28;20191;-78
2021/11/06 09:43:10;;;;;;;3.97;0.73;;;;;;;;;;4836209;28;20607;-78
2021/11/06 09:45:33;;;;;;;14.63;2.10;;;;;;;;;;4839069;28;20222;-78
2021/11/06 09:47:56;;;;;;;7.10;1.10;;;;;;;;;;4836061;28;20582;-77
2021/11/06 09:50:21;;;;;;;6.03;0.87;;;23.30;61.70;;;;;;4836140;28;20257;-78
2021/11/06 09:52:46;;;;;;;16.10;2.23;;;22.60;61.40;;;;;;4837190;28;20608;-78
2021/11/06 09:55:09;;;;;;;10.43;1.50;;;21.10;60.40;;;;;;4820007;28;20227;-75
2021/11/06 09:57:32;;;;;;;12.30;1.70;;;;;;;;;;4832856;28;20190;-78
2021/11/06 09:59:55;;;;;;;10.00;1.50;;;;;;;;;;4819863;28;20238;-77
2021/11/06 10:02:19;;;;;;;12.77;1.87;;;;;;;;;;4834878;28;20669;-76
2021/11/06 10:04:42;;;;;;;14.83;2.13;;;;;;;;;;4819967;28;20194;-80
2021/11/06 10:07:17;;;;;;;8.50;1.30;;;15.60;57.90;;;;;;4836242;28;20193;-78
2021/11/06 10:09:41;;;;;;;19.53;2.83;;;15.10;57.50;;;;;;4829425;28;20194;-78
2021/11/06 10:12:07;;;;;;;9.23;1.37;;;14.60;57.20;;;;;;4836198;28;20183;-75
2021/11/06 10:14:31;;;;;;;7.83;1.33;;;;;;;;;;4835407;28;20254;-75
2021/11/06 10:16:56;;;;;;;6.63;1.07;;;14.50;55.60;;;;;;4819890;28;20298;-76
2021/11/06 10:19:21;;;;;;;11.07;1.77;;;13.60;56.40;;;;;;4835865;28;20213;-77
2021/11/06 10:21:47;;;;;;;19.13;2.87;;;13.40;56.30;;;;;;4837090;28;20190;-75
2021/11/06 10:24:10;;;;;;;5.70;1.10;;;13.30;55.80;;;;;;4835979;28;20194;-76
2021/11/06 10:26:35;;;;;;;16.13;2.40;;;13.20;56.00;;;;;;4837159;28;20245;-77
2021/11/06 10:29:07;;;;;;;10.50;1.77;;;13.50;56.10;;;;;;4837296;28;20187;-78
2021/11/06 10:31:30;;;;;;;11.87;1.80;;;;;;;;;;4819049;28;20199;-75
2021/11/06 10:33:55;;;;;;;8.03;1.30;;;;;;;;;;4837200;28;20293;-77
2021/11/06 10:36:24;;;;;;;11.33;1.77;;;14.20;56.70;;;;;;4836800;28;20211;-76
2021/11/06 10:39:04;;;;;;;15.03;2.23;;;14.70;57.00;;;;;;4820425;28;20187;-77
2021/11/06 10:41:32;;;;;;;8.37;1.37;;;15.90;56.30;;;;;;4822773;28;20237;-77
2021/11/06 10:43:57;;;;;;;7.77;1.20;;;16.70;58.20;;;;;;4836981;28;20226;-78
2021/11/06 10:46:24;;;;;;;8.07;1.27;;;16.60;58.10;;;;;;4837712;28;20230;-75
2021/11/06 10:48:47;;;;;;;7.00;1.13;;;;;;;;;;4837004;28;20408;-77
2021/11/06 10:51:12;;;;;;;7.77;1.30;;;15.60;57.80;;;;;;4835491;28;20218;-78
2021/11/06 10:53:44;;;;;;;18.50;2.67;;;15.80;56.40;;;;;;4803866;28;20689;-75
2021/11/06 10:56:20;;;;;;;10.40;1.57;;;14.80;56.70;;;;;;4834234;28;20606;-76
2021/11/06 10:58:44;;;;;;;25.43;3.63;;;14.60;57.10;;;;;;4816419;28;20582;-75
2021/11/06 11:01:10;;;;;;;9.60;1.43;;;14.40;55.50;;;;;;4845611;28;20197;-77
2021/11/06 11:03:35;;;;;;;16.90;2.47;;;14.40;56.80;;;;;;4832237;28;20781;-76
2021/11/06 11:05:58;;;;;;;9.83;1.60;;;14.40;56.90;;;;;;4840130;28;20191;-75
2021/11/06 11:08:21;;;;;;;16.10;2.40;;;;;;;;;;4839370;28;20191;-76
2021/11/06 11:10:45;;;;;;;18.97;2.67;;;14.70;57.00;;;;;;4837369;28;20237;-76
2021/11/06 11:13:12;;;;;;;8.97;1.37;;;15.60;57.50;;;;;;4840118;28;20191;-75
2021/11/06 11:15:35;;;;;;;17.60;2.37;;;;;;;;;;4832609;28;20272;-75
2021/11/06 11:17:59;;;;;;;15.40;2.00;;;16.40;58.10;;;;;;4840603;28;20190;-76
2021/11/06 11:20:27;;;;;;;27.23;3.23;;;17.50;58.60;;;;;;4839111;28;20186;-77
2021/11/06 11:23:08;;;;;;;14.93;1.80;;;19.80;59.70;;;;;;4838451;28;20203;-78
2021/11/06 11:25:32;;;;;;;24.00;2.87;;;;;;;;;;4837529;28;20194;-76
2021/11/06 11:27:55;;;;;;;17.80;2.20;;;;;;;;;;4838306;28;20233;-76
2021/11/06 11:30:17;;;;;;;19.60;2.43;;;;;;;;;;4820429;28;20223;-76
2021/11/06 11:32:40;;;;;;;24.57;2.93;;;;;;;;;;4838455;28;20188;-75
2021/11/06 11:35:05;;;;;;;18.43;2.30;;;27.40;48.70;;;;;;4837844;28;20213;-77
2021/11/06 11:37:27;;;;;;;14.47;1.90;;;;;;;;;;4839054;28;20244;-78
2021/11/06 11:39:53;;;;;;;13.83;1.77;;;28.20;49.10;;;;;;4837500;28;20723;-79
2021/11/06 11:42:30;;;;;;;25.70;3.33;;;29.40;49.50;;;;;;4838142;28;20244;-78
2021/11/06 11:45:24;;;;;;;16.67;2.17;;;29.70;49.60;;;;;;4839109;28;20219;-79
2021/11/06 11:47:52;;;;;;;19.27;2.37;;;29.90;49.70;;;;;;4832772;28;20185;-76
2021/11/06 11:50:19;;;;;;;21.53;2.70;;;30.00;49.80;;;;;;4857209;28;20271;-77
2021/11/06 11:52:43;;;;;;;41.43;5.00;;;30.20;49.90;;;;;;4838403;28;20247;-76
2021/11/06 11:55:08;;;;;;;20.37;6.73;;;30.90;50.10;;;;;;4839091;28;20188;-76
2021/11/06 11:57:31;;;;;;;41.70;24.27;;;;;;;;;;4838228;28;20215;-77
2021/11/06 11:59:55;;;;;;;142.77;130.37;;;31.90;50.40;;;;;;4836472;28;20237;-78
2021/11/06 12:02:27;;;;;;;213.07;194.37;;;32.50;50.80;;;;;;4835486;28;20200;-74
2021/11/06 12:05:28;;;;;;;215.63;197.43;;;32.40;50.70;;;;;;4838350;28;20192;-76
2021/11/06 12:08:34;;;;;;;209.20;189.07;;;33.30;51.00;;;;;;4833694;28;20632;-77
2021/11/06 12:11:00;;;;;;;219.40;199.53;;;32.00;50.60;;;;;;4838810;28;20668;-77
2021/11/06 12:13:39;;;;;;;243.47;218.43;;;32.10;50.60;;;;;;4838828;28;20536;-76
2021/11/06 12:16:03;;;;;;;254.80;228.60;;;32.50;50.70;;;;;;4837644;28;20265;-77
2021/11/06 12:18:49;;;;;;;249.80;223.37;;;32.70;50.80;;;;;;4836581;28;20201;-76
2021/11/06 12:21:37;;;;;;;292.40;253.80;;;33.30;51.00;;;;;;4838823;28;20197;-77
2021/11/06 12:24:28;;;;;;;358.37;269.10;;;33.80;51.20;;;;;;4836013;28;20206;-75
2021/11/06 12:26:54;;;;;;;341.20;267.60;;;33.10;51.10;;;;;;4842592;28;20615;-78
2021/11/06 12:29:49;;;;;;;300.43;258.93;;;32.00;50.60;;;;;;4835615;28;20695;-76
2021/11/06 12:32:21;;;;;;;268.00;242.73;;;32.90;50.90;;;;;;4820145;28;20197;-80
2021/11/06 12:34:47;;;;;;;152.07;135.67;;;33.40;51.10;;;;;;4836873;28;20262;-78
2021/11/06 12:37:11;;;;;;;45.37;41.03;;;32.70;50.90;;;;;;4836208;28;20245;-77
2021/11/06 12:39:54;;;;;;;69.80;59.00;;;32.20;50.70;;;;;;4818730;28;20232;-76
2021/11/06 12:42:19;;;;;;;372.00;261.40;;;32.10;50.70;;;;;;4836450;28;20260;-77
2021/11/06 12:44:50;;;;;;;177.77;127.27;;;31.60;50.50;;;;;;4819743;28;20666;-77
2021/11/06 12:47:13;;;;;;;40.27;29.23;;;;;;;;;;4836594;28;20200;-78
2021/11/06 12:49:35;;;;;;;155.03;141.17;;;;;;;;;;4834814;28;20211;-79
2021/11/06 12:51:58;;;;;;;214.17;194.77;;;;;;;;;;4837625;28;20249;-81
2021/11/06 12:54:21;;;;;;;305.30;230.07;;;;;;;;;;4835985;28;20204;-77
2021/11/06 12:56:51;;;;;;;318.33;250.70;;;30.10;50.00;;;;;;4819901;28;20267;-77
2021/11/06 12:59:16;;;;;;;129.20;116.17;;;29.20;49.70;;;;;;4836291;28;20187;-77
2021/11/06 13:01:40;;;;;;;36.97;21.37;;;28.80;49.50;;;;;;4834310;28;20228;-80
2021/11/06 13:04:04;;;;;;;27.03;14.33;;;28.70;49.50;;;;;;4828064;28;20192;-77